sensor_id;sensor_type;location;lat;lon;timestamp;pressure;altitude;pressure_sealevel;temperature;humidity
44144;BME280;68165;51.920;4.492;2023-03-22T00:02:24;67115.41;;;11.40;100.00
44144;BME280;68165;51.920;4.492;2023-03-22T00:04:51;67117.88;;;11.38;100.00
44144;BME280;68165;51.920;4.492;2023-03-22T00:07:17;67121.63;;;11.39;100.00
44144;BME280;68165;51.920;4.492;2023-03-22T00:09:43;67117.88;;;11.38;100.00
44144;BME280;68165;51.920;4.492;2023-03-22T00:12:08;67119.00;;;11.39;100.00
44144;BME280;68165;51.920;4.492;2023-03-22T00:14:34;67122.50;;;11.44;100.00
44144;BME280;68165;51.920;4.492;2023-03-22T00:17:00;67121.63;;;11.39;100.00
44144;BME280;68165;51.920;4.492;2023-03-22T00:19:25;67128.09;;;11.50;100.00
44144;BME280;68165;51.920;4.492;2023-03-22T00:21:53;67125.69;;;11.45;100.00
44144;BME280;68165;51.920;4.492;2023-03-22T00:24:19;67126.66;;;11.43;100.00
44144;BME280;68165;51.920;4.492;2023-03-22T00:26:45;67127.69;;;11.52;100.00
44144;BME280;68165;51.920;4.492;2023-03-22T00:29:11;67133.13;;;11.54;100.00
44144;BME280;68165;51.920;4.492;2023-03-22T00:31:37;67134.41;;;11.58;100.00
44144;BME280;68165;51.920;4.492;2023-03-22T00:34:02;67140.59;;;11.56;100.00
44144;BME280;68165;51.920;4.492;2023-03-22T00:36:27;67137.97;;;11.56;100.00
44144;BME280;68165;51.920;4.492;2023-03-22T00:38:53;67141.31;;;11.59;100.00
44144;BME280;68165;51.920;4.492;2023-03-22T00:41:20;67148.03;;;11.65;100.00
44144;BME280;68165;51.920;4.492;2023-03-22T00:43:47;67157.72;;;11.69;100.00
44144;BME280;68165;51.920;4.492;2023-03-22T00:46:14;67167.63;;;11.76;100.00
44144;BME280;68165;51.920;4.492;2023-03-22T00:48:40;67167.97;;;11.81;100.00
44144;BME280;68165;51.920;4.492;2023-03-22T00:51:07;67175.63;;;11.85;100.00
44144;BME280;68165;51.920;4.492;2023-03-22T00:53:32;67170.38;;;11.85;100.00
44144;BME280;68165;51.920;4.492;2023-03-22T00:55:59;67172.59;;;11.88;100.00
44144;BME280;68165;51.920;4.492;2023-03-22T00:58:24;67179.88;;;11.94;100.00
44144;BME280;68165;51.920;4.492;2023-03-22T01:00:50;67182.88;;;11.92;100.00
44144;BME280;68165;51.920;4.492;2023-03-22T01:03:16;67184.88;;;11.99;100.00
44144;BME280;68165;51.920;4.492;2023-03-22T01:05:44;67190.00;;;11.96;100.00
44144;BME280;68165;51.920;4.492;2023-03-22T01:08:10;67189.03;;;11.98;100.00
44144;BME280;68165;51.920;4.492;2023-03-22T01:10:39;67183.22;;;11.97;100.00
44144;BME280;68165;51.920;4.492;2023-03-22T01:13:06;67187.38;;;11.96;100.00
44144;BME280;68165;51.920;4.492;2023-03-22T01:15:32;67190.88;;;12.02;100.00
44144;BME280;68165;51.920;4.492;2023-03-22T01:17:58;67189.75;;;12.01;100.00
44144;BME280;68165;51.920;4.492;2023-03-22T01:20:23;67182.25;;;11.99;100.00
44144;BME280;68165;51.920;4.492;2023-03-22T01:22:49;67193.09;;;12.04;100.00
44144;BME280;68165;51.920;4.492;2023-03-22T01:25:14;67186.19;;;12.02;100.00
44144;BME280;68165;51.920;4.492;2023-03-22T01:27:40;67191.03;;;12.04;100.00
44144;BME280;68165;51.920;4.492;2023-03-22T01:30:06;67190.09;;;12.06;100.00
44144;BME280;68165;51.920;4.492;2023-03-22T01:32:32;67200.34;;;12.10;100.00
44144;BME280;68165;51.920;4.492;2023-03-22T01:34:57;67194.00;;;12.09;100.00
44144;BME280;68165;51.920;4.492;2023-03-22T01:37:24;67196.63;;;12.09;100.00
44144;BME280;68165;51.920;4.492;2023-03-22T01:39:53;67201.66;;;12.14;100.00
44144;BME280;68165;51.920;4.492;2023-03-22T01:42:18;67196.06;;;12.09;100.00
44144;BME280;68165;51.920;4.492;2023-03-22T01:45:48;67212.66;;;12.21;100.00
44144;BME280;68165;51.920;4.492;2023-03-22T01:48:04;67195.66;;;12.11;100.00
44144;BME280;68165;51.920;4.492;2023-03-22T01:50:31;67193.84;;;12.07;100.00
44144;BME280;68165;51.920;4.492;2023-03-22T01:52:58;67193.84;;;12.07;100.00
44144;BME280;68165;51.920;4.492;2023-03-22T01:55:24;67189.38;;;12.03;100.00
44144;BME280;68165;51.920;4.492;2023-03-22T01:57:52;67186.75;;;12.03;100.00
44144;BME280;68165;51.920;4.492;2023-03-22T02:00:18;67188.47;;;11.97;100.00
44144;BME280;68165;51.920;4.492;2023-03-22T02:02:47;67183.22;;;11.97;100.00
44144;BME280;68165;51.920;4.492;2023-03-22T02:05:15;67190.16;;;11.99;100.00
44144;BME280;68165;51.920;4.492;2023-03-22T02:07:41;67190.31;;;12.01;100.00
44144;BME280;68165;51.920;4.492;2023-03-22T02:10:12;67186.00;;;12.00;100.00
44144;BME280;68165;51.920;4.492;2023-03-22T02:15:22;67196.06;;;12.09;100.00
44144;BME280;68165;51.920;4.492;2023-03-22T02:17:57;67219.34;;;12.27;100.00
44144;BME280;68165;51.920;4.492;2023-03-22T02:27:04;67197.16;;;12.10;100.00
44144;BME280;68165;51.920;4.492;2023-03-22T02:29:44;67182.66;;;11.97;100.00
44144;BME280;68165;51.920;4.492;2023-03-22T02:32:31;67182.25;;;11.99;100.00
44144;BME280;68165;51.920;4.492;2023-03-22T02:41:16;67179.31;;;11.94;100.00
44144;BME280;68165;51.920;4.492;2023-03-22T02:43:57;67168.31;;;11.86;100.00
44144;BME280;68165;51.920;4.492;2023-03-22T02:46:31;67163.69;;;11.79;100.00
44144;BME280;68165;51.920;4.492;2023-03-22T02:49:19;67173.00;;;11.85;100.00
44144;BME280;68165;51.920;4.492;2023-03-22T02:51:57;67165.53;;;11.83;100.00
44144;BME280;68165;51.920;4.492;2023-03-22T02:54:28;67170.38;;;11.85;100.00
44144;BME280;68165;51.920;4.492;2023-03-22T02:57:51;67179.31;;;11.94;100.00
44144;BME280;68165;51.920;4.492;2023-03-22T03:00:10;67175.97;;;11.91;100.00
44144;BME280;68165;51.920;4.492;2023-03-22T03:02:43;67174.63;;;11.94;100.00
44144;BME280;68165;51.920;4.492;2023-03-22T03:05:12;67176.69;;;11.94;100.00
44144;BME280;68165;51.920;4.492;2023-03-22T03:07:42;67174.63;;;11.94;100.00
44144;BME280;68165;51.920;4.492;2023-03-22T03:10:10;67181.94;;;11.94;100.00
44144;BME280;68165;51.920;4.492;2023-03-22T03:12:36;67175.41;;;11.90;100.00
44144;BME280;68165;51.920;4.492;2023-03-22T03:15:05;67180.44;;;11.95;100.00
44144;BME280;68165;51.920;4.492;2023-03-22T03:17:50;67190.47;;;12.04;100.00
44144;BME280;68165;51.920;4.492;2023-03-22T03:31:27;67189.38;;;12.03;100.00
44144;BME280;68165;51.920;4.492;2023-03-22T03:34:07;67186.19;;;12.02;100.00
44144;BME280;68165;51.920;4.492;2023-03-22T03:36:35;67179.88;;;11.94;100.00
44144;BME280;68165;51.920;4.492;2023-03-22T03:39:06;67180.25;;;11.92;100.00
44144;BME280;68165;51.920;4.492;2023-03-22T03:41:34;67179.88;;;11.94;100.00
44144;BME280;68165;51.920;4.492;2023-03-22T03:44:00;67177.09;;;11.92;100.00
44144;BME280;68165;51.920;4.492;2023-03-22T03:46:26;67180.25;;;11.92;100.00
44144;BME280;68165;51.920;4.492;2023-03-22T03:48:54;67178.19;;;11.93;100.00
44144;BME280;68165;51.920;4.492;2023-03-22T03:51:22;67179.31;;;11.94;100.00
44144;BME280;68165;51.920;4.492;2023-03-22T03:53:48;67177.47;;;11.90;100.00
44144;BME280;68165;51.920;4.492;2023-03-22T03:56:13;67179.31;;;11.94;100.00
44144;BME280;68165;51.920;4.492;2023-03-22T03:58:39;67170.94;;;11.86;100.00
44144;BME280;68165;51.920;4.492;2023-03-22T04:01:05;67180.44;;;11.95;100.00
44144;BME280;68165;51.920;4.492;2023-03-22T04:03:30;67183.78;;;11.98;100.00
44144;BME280;68165;51.920;4.492;2023-03-22T04:05:55;67176.13;;;11.93;100.00
44144;BME280;68165;51.920;4.492;2023-03-22T04:08:21;67186.81;;;11.96;100.00
44144;BME280;68165;51.920;4.492;2023-03-22T04:10:50;67182.09;;;11.96;100.00
44144;BME280;68165;51.920;4.492;2023-03-22T04:13:16;67184.19;;;11.96;100.00
44144;BME280;68165;51.920;4.492;2023-03-22T04:15:42;67179.31;;;11.94;100.00
44144;BME280;68165;51.920;4.492;2023-03-22T04:18:08;67176.13;;;11.93;100.00
44144;BME280;68165;51.920;4.492;2023-03-22T04:20:35;67178.19;;;11.93;100.00
44144;BME280;68165;51.920;4.492;2023-03-22T04:23:03;67178.19;;;11.93;100.00
44144;BME280;68165;51.920;4.492;2023-03-22T04:25:28;67176.53;;;11.91;100.00
44144;BME280;68165;51.920;4.492;2023-03-22T04:27:54;67174.28;;;11.89;100.00
44144;BME280;68165;51.920;4.492;2023-03-22T04:30:20;67170.38;;;11.85;100.00
44144;BME280;68165;51.920;4.492;2023-03-22T04:32:48;67171.50;;;11.86;100.00
44144;BME280;68165;51.920;4.492;2023-03-22T04:35:17;67162.56;;;11.78;100.00
44144;BME280;68165;51.920;4.492;2023-03-22T04:37:43;67168.16;;;11.83;100.00
44144;BME280;68165;51.920;4.492;2023-03-22T04:40:10;67168.94;;;11.79;100.00
44144;BME280;68165;51.920;4.492;2023-03-22T04:42:40;67165.91;;;11.81;100.00
44144;BME280;68165;51.920;4.492;2023-03-22T04:45:06;67159.53;;;11.80;100.00
44144;BME280;68165;51.920;4.492;2023-03-22T04:47:32;67162.72;;;11.81;100.00
44144;BME280;68165;51.920;4.492;2023-03-22T04:49:57;67162.56;;;11.78;100.00
44144;BME280;68165;51.920;4.492;2023-03-22T04:52:22;67164.06;;;11.77;100.00
44144;BME280;68165;51.920;4.492;2023-03-22T04:54:48;67164.63;;;11.78;100.00
44144;BME280;68165;51.920;4.492;2023-03-22T04:57:13;67164.78;;;11.80;100.00
44144;BME280;68165;51.920;4.492;2023-03-22T04:59:38;67163.28;;;11.81;100.00
44144;BME280;68165;51.920;4.492;2023-03-22T05:02:04;67165.91;;;11.81;100.00
44144;BME280;68165;51.920;4.492;2023-03-22T05:04:29;67159.22;;;11.75;100.00
44144;BME280;68165;51.920;4.492;2023-03-22T05:06:55;67166.31;;;11.79;100.00
44144;BME280;68165;51.920;4.492;2023-03-22T05:09:20;67163.13;;;11.79;100.00
44144;BME280;68165;51.920;4.492;2023-03-22T05:11:46;67168.72;;;11.84;100.00
44144;BME280;68165;51.920;4.492;2023-03-22T05:14:11;67167.03;;;11.82;100.00
44144;BME280;68165;51.920;4.492;2023-03-22T05:16:37;67175.22;;;11.88;100.00
44144;BME280;68165;51.920;4.492;2023-03-22T05:19:06;67173.72;;;11.89;100.00
44144;BME280;68165;51.920;4.492;2023-03-22T05:21:39;67176.53;;;11.91;100.00
44144;BME280;68165;51.920;4.492;2023-03-22T05:24:05;67175.97;;;11.91;100.00
44144;BME280;68165;51.920;4.492;2023-03-22T05:26:30;67176.53;;;11.91;100.00
44144;BME280;68165;51.920;4.492;2023-03-22T05:28:56;67167.91;;;11.88;100.00
44144;BME280;68165;51.920;4.492;2023-03-22T05:31:21;67175.22;;;11.88;100.00
44144;BME280;68165;51.920;4.492;2023-03-22T05:33:48;67174.28;;;11.89;100.00
44144;BME280;68165;51.920;4.492;2023-03-22T05:36:15;67174.13;;;11.86;100.00
44144;BME280;68165;51.920;4.492;2023-03-22T05:38:41;67178.19;;;11.93;100.00
44144;BME280;68165;51.920;4.492;2023-03-22T05:41:06;67178.19;;;11.93;100.00
44144;BME280;68165;51.920;4.492;2023-03-22T05:43:32;67169.66;;;11.82;100.00
44144;BME280;68165;51.920;4.492;2023-03-22T05:45:57;67179.16;;;11.91;100.00
44144;BME280;68165;51.920;4.492;2023-03-22T05:48:23;67178.75;;;11.93;100.00
44144;BME280;68165;51.920;4.492;2023-03-22T05:50:48;67175.97;;;11.91;100.00
44144;BME280;68165;51.920;4.492;2023-03-22T05:53:13;67173.34;;;11.91;100.00
44144;BME280;68165;51.920;4.492;2023-03-22T05:55:39;67172.94;;;11.93;100.00
44144;BME280;68165;51.920;4.492;2023-03-22T05:58:05;67179.72;;;11.92;100.00
44144;BME280;68165;51.920;4.492;2023-03-22T06:00:30;67175.97;;;11.91;100.00
44144;BME280;68165;51.920;4.492;2023-03-22T06:02:59;67182.66;;;11.97;100.00
44144;BME280;68165;51.920;4.492;2023-03-22T06:05:29;67184.88;;;11.99;100.00
44144;BME280;68165;51.920;4.492;2023-03-22T06:07:56;67191.59;;;12.05;100.00
44144;BME280;68165;51.920;4.492;2023-03-22T06:10:21;67194.53;;;12.10;100.00
44144;BME280;68165;51.920;4.492;2023-03-22T06:12:48;67205.41;;;12.15;100.00
44144;BME280;68165;51.920;4.492;2023-03-22T06:15:13;67206.13;;;12.18;100.00
44144;BME280;68165;51.920;4.492;2023-03-22T06:17:39;67218.81;;;12.27;100.00
44144;BME280;68165;51.920;4.492;2023-03-22T06:20:06;67223.28;;;12.31;100.00
44144;BME280;68165;51.920;4.492;2023-03-22T06:22:34;67234.84;;;12.39;100.00
44144;BME280;68165;51.920;4.492;2023-03-22T06:25:00;67239.88;;;12.44;100.00
44144;BME280;68165;51.920;4.492;2023-03-22T06:27:26;67223.97;;;12.34;100.00
44144;BME280;68165;51.920;4.492;2023-03-22T06:29:51;67228.84;;;12.36;100.00
44144;BME280;68165;51.920;4.492;2023-03-22T06:32:19;67223.97;;;12.34;100.00
44144;BME280;68165;51.920;4.492;2023-03-22T06:34:48;67222.47;;;12.35;100.00
44144;BME280;68165;51.920;4.492;2023-03-22T06:37:13;67224.53;;;12.35;100.00
44144;BME280;68165;51.920;4.492;2023-03-22T06:39:38;67228.47;;;12.38;100.00
44144;BME280;68165;51.920;4.492;2023-03-22T06:42:04;67235.00;;;12.42;100.00
44144;BME280;68165;51.920;4.492;2023-03-22T06:44:30;67230.69;;;12.40;100.00
44144;BME280;68165;51.920;4.492;2023-03-22T06:46:57;67234.06;;;12.43;100.00
44144;BME280;68165;51.920;4.492;2023-03-22T06:49:22;67243.22;;;12.47;100.00
44144;BME280;68165;51.920;4.492;2023-03-22T06:51:48;67239.63;;;12.48;100.00
44144;BME280;68165;51.920;4.492;2023-03-22T06:54:13;67244.09;;;12.52;100.00
44144;BME280;68165;51.920;4.492;2023-03-22T06:56:40;67240.03;;;12.46;100.00
44144;BME280;68165;51.920;4.492;2023-03-22T06:59:06;67237.81;;;12.44;100.00
44144;BME280;68165;51.920;4.492;2023-03-22T07:01:32;67228.78;;;12.43;100.00
44144;BME280;68165;51.920;4.492;2023-03-22T07:03:57;67231.25;;;12.41;100.00
44144;BME280;68165;51.920;4.492;2023-03-22T07:06:22;67232.53;;;12.44;100.00
44144;BME280;68165;51.920;4.492;2023-03-22T07:08:48;67250.66;;;12.56;100.00
44144;BME280;68165;51.920;4.492;2023-03-22T07:11:13;67262.00;;;12.68;100.00
44144;BME280;68165;51.920;4.492;2023-03-22T07:13:39;67270.22;;;12.74;100.00
44144;BME280;68165;51.920;4.492;2023-03-22T07:16:05;67281.56;;;12.86;100.00
44144;BME280;68165;51.920;4.492;2023-03-22T07:18:30;67308.22;;;13.08;99.88
44144;BME280;68165;51.920;4.492;2023-03-22T07:20:56;67327.97;;;13.28;98.75
44144;BME280;68165;51.920;4.492;2023-03-22T07:23:22;67344.16;;;13.43;97.87
44144;BME280;68165;51.920;4.492;2023-03-22T07:25:48;67357.19;;;13.57;97.44
44144;BME280;68165;51.920;4.492;2023-03-22T07:28:14;67366.53;;;13.63;96.95
44144;BME280;68165;51.920;4.492;2023-03-22T07:30:40;67371.00;;;13.67;96.39
44144;BME280;68165;51.920;4.492;2023-03-22T07:33:06;67368.06;;;13.62;96.22
44144;BME280;68165;51.920;4.492;2023-03-22T07:35:33;67364.53;;;13.57;96.41
44144;BME280;68165;51.920;4.492;2023-03-22T07:38:00;67332.59;;;13.35;97.49
44144;BME280;68165;51.920;4.492;2023-03-22T07:40:25;67326.13;;;13.24;98.40
44144;BME280;68165;51.920;4.492;2023-03-22T07:42:51;67316.78;;;13.18;99.10
44144;BME280;68165;51.920;4.492;2023-03-22T07:45:18;67316.78;;;13.18;98.59
44144;BME280;68165;51.920;4.492;2023-03-22T07:47:44;67301.66;;;13.04;98.50
44144;BME280;68165;51.920;4.492;2023-03-22T07:50:09;67294.00;;;13.00;99.20
44144;BME280;68165;51.920;4.492;2023-03-22T07:52:36;67291.78;;;12.98;99.78
44144;BME280;68165;51.920;4.492;2023-03-22T07:55:02;67277.63;;;12.83;100.00
44144;BME280;68165;51.920;4.492;2023-03-22T07:57:28;67269.25;;;12.75;100.00
44144;BME280;68165;51.920;4.492;2023-03-22T07:59:53;67257.91;;;12.62;100.00
44144;BME280;68165;51.920;4.492;2023-03-22T08:02:18;67246.41;;;12.47;100.00
44144;BME280;68165;51.920;4.492;2023-03-22T08:04:44;67234.06;;;12.43;100.00
44144;BME280;68165;51.920;4.492;2023-03-22T08:07:10;67239.25;;;12.50;100.00
44144;BME280;68165;51.920;4.492;2023-03-22T08:09:36;67234.44;;;12.41;100.00
44144;BME280;68165;51.920;4.492;2023-03-22T08:12:02;67212.66;;;12.21;100.00
44144;BME280;68165;51.920;4.492;2023-03-22T08:14:28;67202.44;;;12.10;100.00
44144;BME280;68165;51.920;4.492;2023-03-22T08:16:54;67183.78;;;11.98;100.00
44144;BME280;68165;51.920;4.492;2023-03-22T08:19:19;67179.72;;;11.92;100.00
44144;BME280;68165;51.920;4.492;2023-03-22T08:21:44;67184.19;;;11.96;100.00
44144;BME280;68165;51.920;4.492;2023-03-22T08:24:10;67178.19;;;11.93;100.00
44144;BME280;68165;51.920;4.492;2023-03-22T08:26:35;67174.69;;;11.87;100.00
44144;BME280;68165;51.920;4.492;2023-03-22T08:29:02;67158.09;;;11.74;100.00
44144;BME280;68165;51.920;4.492;2023-03-22T08:31:27;67164.78;;;11.80;100.00
44144;BME280;68165;51.920;4.492;2023-03-22T08:33:53;67159.75;;;11.76;100.00
44144;BME280;68165;51.920;4.492;2023-03-22T08:36:20;67156.41;;;11.73;100.00
44144;BME280;68165;51.920;4.492;2023-03-22T08:38:48;67160.31;;;11.76;100.00
44144;BME280;68165;51.920;4.492;2023-03-22T08:41:14;67155.84;;;11.72;100.00
44144;BME280;68165;51.920;4.492;2023-03-22T08:43:42;67150.25;;;11.67;100.00
44144;BME280;68165;51.920;4.492;2023-03-22T08:46:08;67146.91;;;11.64;100.00
44144;BME280;68165;51.920;4.492;2023-03-22T08:48:34;67145.06;;;11.60;100.00
44144;BME280;68165;51.920;4.492;2023-03-22T08:51:02;67135.75;;;11.54;100.00
44144;BME280;68165;51.920;4.492;2023-03-22T08:53:29;67126.09;;;11.43;100.00
44144;BME280;68165;51.920;4.492;2023-03-22T08:55:55;67122.34;;;11.42;100.00
44144;BME280;68165;51.920;4.492;2023-03-22T08:58:22;67131.25;;;11.50;100.00
44144;BME280;68165;51.920;4.492;2023-03-22T09:00:48;67139.31;;;11.53;100.00
44144;BME280;68165;51.920;4.492;2023-03-22T09:03:14;67120.66;;;11.40;100.00
44144;BME280;68165;51.920;4.492;2023-03-22T09:05:40;67134.44;;;11.51;100.00
44144;BME280;68165;51.920;4.492;2023-03-22T09:08:05;67131.81;;;11.51;100.00
44144;BME280;68165;51.920;4.492;2023-03-22T09:10:31;67129.44;;;11.46;100.00
44144;BME280;68165;51.920;4.492;2023-03-22T09:12:57;67116.78;;;11.37;100.00
44144;BME280;68165;51.920;4.492;2023-03-22T09:15:22;67110.63;;;11.31;100.00
44144;BME280;68165;51.920;4.492;2023-03-22T09:17:47;67118.09;;;11.33;100.00
44144;BME280;68165;51.920;4.492;2023-03-22T09:20:15;67121.78;;;11.41;100.00
44144;BME280;68165;51.920;4.492;2023-03-22T09:22:40;67118.03;;;11.40;100.00
44144;BME280;68165;51.920;4.492;2023-03-22T09:25:06;67130.56;;;11.47;100.00
44144;BME280;68165;51.920;4.492;2023-03-22T09:27:32;67137.81;;;11.54;100.00
44144;BME280;68165;51.920;4.492;2023-03-22T09:29:57;67143.00;;;11.61;100.00
44144;BME280;68165;51.920;4.492;2023-03-22T09:32:23;67141.31;;;11.59;100.00
44144;BME280;68165;51.920;4.492;2023-03-22T09:34:48;67138.53;;;11.57;100.00
44144;BME280;68165;51.920;4.492;2023-03-22T09:37:14;67136.88;;;11.55;100.00
44144;BME280;68165;51.920;4.492;2023-03-22T09:39:39;67138.53;;;11.57;100.00
44144;BME280;68165;51.920;4.492;2023-03-22T09:42:30;67138.53;;;11.57;100.00
44144;BME280;68165;51.920;4.492;2023-03-22T09:44:57;67146.75;;;11.62;100.00
44144;BME280;68165;51.920;4.492;2023-03-22T09:47:38;67139.09;;;11.57;100.00
44144;BME280;68165;51.920;4.492;2023-03-22T09:50:22;67148.41;;;11.63;100.00
44144;BME280;68165;51.920;4.492;2023-03-22T09:52:49;67143.38;;;11.59;100.00
44144;BME280;68165;51.920;4.492;2023-03-22T10:00:58;67150.09;;;11.65;100.00
44144;BME280;68165;51.920;4.492;2023-03-22T10:03:33;67139.09;;;11.57;100.00
44144;BME280;68165;51.920;4.492;2023-03-22T10:06:22;67144.13;;;11.62;100.00
44144;BME280;68165;51.920;4.492;2023-03-22T10:14:30;67159.63;;;11.73;100.00
44144;BME280;68165;51.920;4.492;2023-03-22T10:16:59;67140.75;;;11.59;100.00
44144;BME280;68165;51.920;4.492;2023-03-22T10:19:34;67147.69;;;11.60;100.00
44144;BME280;68165;51.920;4.492;2023-03-22T10:22:02;67150.66;;;11.65;100.00
44144;BME280;68165;51.920;4.492;2023-03-22T10:24:33;67154.72;;;11.71;100.00
44144;BME280;68165;51.920;4.492;2023-03-22T10:27:00;67153.59;;;11.70;100.00
44144;BME280;68165;51.920;4.492;2023-03-22T10:29:40;67161.84;;;11.75;100.00
44144;BME280;68165;51.920;4.492;2023-03-22T10:34:42;67168.16;;;11.83;100.00
44144;BME280;68165;51.920;4.492;2023-03-22T10:37:12;67177.47;;;11.90;100.00
44144;BME280;68165;51.920;4.492;2023-03-22T10:39:51;67181.56;;;11.96;100.00
44144;BME280;68165;51.920;4.492;2023-03-22T10:42:21;67174.84;;;11.90;100.00
44144;BME280;68165;51.920;4.492;2023-03-22T10:44:55;67179.88;;;11.94;100.00
44144;BME280;68165;51.920;4.492;2023-03-22T10:47:40;67198.69;;;12.09;100.00
44144;BME280;68165;51.920;4.492;2023-03-22T10:50:12;67196.84;;;12.05;100.00
44144;BME280;68165;51.920;4.492;2023-03-22T10:52:46;67209.47;;;12.21;100.00
44144;BME280;68165;51.920;4.492;2023-03-22T10:55:15;67220.09;;;12.31;100.00
44144;BME280;68165;51.920;4.492;2023-03-22T10:57:56;67250.09;;;12.55;100.00
44144;BME280;68165;51.920;4.492;2023-03-22T11:00:21;67269.25;;;12.75;100.00
44144;BME280;68165;51.920;4.492;2023-03-22T11:02:58;67294.97;;;12.98;100.00
44144;BME280;68165;51.920;4.492;2023-03-22T11:05:26;67319.00;;;13.20;100.00
44144;BME280;68165;51.920;4.492;2023-03-22T11:07:52;67343.59;;;13.42;100.00
44144;BME280;68165;51.920;4.492;2023-03-22T11:10:19;67360.78;;;13.56;100.00
44144;BME280;68165;51.920;4.492;2023-03-22T11:15:35;67357.59;;;13.55;100.00
44144;BME280;68165;51.920;4.492;2023-03-22T11:18:07;67359.28;;;13.57;100.00
44144;BME280;68165;51.920;4.492;2023-03-22T11:20:39;67352.94;;;13.48;100.00
44144;BME280;68165;51.920;4.492;2023-03-22T11:23:05;67354.25;;;13.52;100.00
44144;BME280;68165;51.920;4.492;2023-03-22T11:25:34;67347.53;;;13.46;100.00
44144;BME280;68165;51.920;4.492;2023-03-22T11:28:09;67357.41;;;13.53;100.00
44144;BME280;68165;51.920;4.492;2023-03-22T11:30:57;67357.41;;;13.53;100.00
44144;BME280;68165;51.920;4.492;2023-03-22T11:33:22;67383.69;;;13.76;100.00
44144;BME280;68165;51.920;4.492;2023-03-22T11:35:58;67351.44;;;13.49;100.00
44144;BME280;68165;51.920;4.492;2023-03-22T11:41:00;67349.94;;;13.51;100.00
44144;BME280;68165;51.920;4.492;2023-03-22T11:43:32;67352.94;;;13.48;100.00
44144;BME280;68165;51.920;4.492;2023-03-22T11:45:58;67387.25;;;13.82;100.00
44144;BME280;68165;51.920;4.492;2023-03-22T11:48:27;67350.88;;;13.49;100.00
44144;BME280;68165;51.920;4.492;2023-03-22T11:50:55;67335.22;;;13.35;100.00
44144;BME280;68165;51.920;4.492;2023-03-22T11:53:24;67323.09;;;13.26;100.00
44144;BME280;68165;51.920;4.492;2023-03-22T11:55:53;67302.56;;;13.10;100.00
44144;BME280;68165;51.920;4.492;2023-03-22T11:59:13;67333.94;;;13.31;100.00
44144;BME280;68165;51.920;4.492;2023-03-22T12:04:02;67342.34;;;13.39;100.00
44144;BME280;68165;51.920;4.492;2023-03-22T12:06:36;67351.84;;;13.47;100.00
44144;BME280;68165;51.920;4.492;2023-03-22T12:09:17;67353.69;;;13.52;100.00
44144;BME280;68165;51.920;4.492;2023-03-22T12:11:49;67346.41;;;13.45;100.00
44144;BME280;68165;51.920;4.492;2023-03-22T12:14:20;67345.84;;;13.44;100.00
44144;BME280;68165;51.920;4.492;2023-03-22T12:22:33;67367.50;;;13.62;100.00
44144;BME280;68165;51.920;4.492;2023-03-22T12:24:59;67367.66;;;13.64;100.00
44144;BME280;68165;51.920;4.492;2023-03-22T12:27:36;67383.16;;;13.76;100.00
44144;BME280;68165;51.920;4.492;2023-03-22T12:32:33;67396.03;;;13.87;100.00
44144;BME280;68165;51.920;4.492;2023-03-22T12:35:00;67401.22;;;13.95;100.00
44144;BME280;68165;51.920;4.492;2023-03-22T12:37:32;67399.94;;;13.91;100.00
44144;BME280;68165;51.920;4.492;2023-03-22T12:40:02;67398.81;;;13.90;100.00
44144;BME280;68165;51.920;4.492;2023-03-22T12:42:39;67400.66;;;13.94;100.00
44144;BME280;68165;51.920;4.492;2023-03-22T12:45:13;67405.69;;;13.99;100.00
44144;BME280;68165;51.920;4.492;2023-03-22T12:47:45;67403.44;;;13.97;100.00
44144;BME280;68165;51.920;4.492;2023-03-22T12:50:25;67409.22;;;14.04;100.00
44144;BME280;68165;51.920;4.492;2023-03-22T12:52:53;67408.47;;;14.01;100.00
44144;BME280;68165;51.920;4.492;2023-03-22T12:55:24;67416.88;;;14.09;100.00
44144;BME280;68165;51.920;4.492;2023-03-22T12:57:52;67422.31;;;14.11;100.00
44144;BME280;68165;51.920;4.492;2023-03-22T13:00:27;67430.88;;;14.21;100.00
44144;BME280;68165;51.920;4.492;2023-03-22T13:05:44;67432.31;;;14.27;100.00
44144;BME280;68165;51.920;4.492;2023-03-22T13:08:10;67446.94;;;14.34;100.00
44144;BME280;68165;51.920;4.492;2023-03-22T13:21:17;67458.13;;;14.44;100.00
44144;BME280;68165;51.920;4.492;2023-03-22T13:26:50;67456.63;;;14.45;100.00
44144;BME280;68165;51.920;4.492;2023-03-22T13:29:32;67450.47;;;14.39;100.00
44144;BME280;68165;51.920;4.492;2023-03-22T13:32:03;67442.22;;;14.34;100.00
44144;BME280;68165;51.920;4.492;2023-03-22T13:36:58;67437.19;;;14.29;100.00
44144;BME280;68165;51.920;4.492;2023-03-22T13:39:31;67439.66;;;14.27;100.00
44144;BME280;68165;51.920;4.492;2023-03-22T13:42:06;67444.28;;;14.34;100.00
44144;BME280;68165;51.920;4.492;2023-03-22T13:44:38;67450.47;;;14.39;100.00
44144;BME280;68165;51.920;4.492;2023-03-22T13:50:10;67437.03;;;14.27;100.00
44144;BME280;68165;51.920;4.492;2023-03-22T13:52:41;67420.41;;;14.14;100.00
44144;BME280;68165;51.920;4.492;2023-03-22T13:55:35;67442.28;;;14.27;100.00
44144;BME280;68165;51.920;4.492;2023-03-22T13:58:01;67429.75;;;14.20;100.00
44144;BME280;68165;51.920;4.492;2023-03-22T14:00:34;67430.31;;;14.21;100.00
44144;BME280;68165;51.920;4.492;2023-03-22T14:03:12;67436.63;;;14.29;100.00
44144;BME280;68165;51.920;4.492;2023-03-22T14:05:39;67434.22;;;14.24;100.00
44144;BME280;68165;51.920;4.492;2023-03-22T14:08:16;67444.84;;;14.34;100.00
44144;BME280;68165;51.920;4.492;2023-03-22T14:13:45;67443.16;;;14.32;100.00
44144;BME280;68165;51.920;4.492;2023-03-22T14:19:07;67444.69;;;14.31;100.00
44144;BME280;68165;51.920;4.492;2023-03-22T14:21:36;67450.69;;;14.35;100.00
44144;BME280;68165;51.920;4.492;2023-03-22T14:24:04;67444.84;;;14.34;100.00